createdAt,value
2022-11-24T00:01:29.667Z,98289.00
2022-11-24T00:03:58.896Z,98285.78
2022-11-24T00:06:25.880Z,98294.66
2022-11-24T00:08:53.202Z,98299.97
2022-11-24T00:11:22.409Z,98301.53
2022-11-24T00:13:49.329Z,98304.19
2022-11-24T00:16:18.195Z,98302.09
2022-11-24T00:18:46.634Z,98311.06
2022-11-24T00:21:14.399Z,98307.09
2022-11-24T00:23:41.132Z,98307.69
2022-11-24T00:26:11.599Z,98307.97
2022-11-24T00:28:39.475Z,98305.59
2022-11-24T00:31:40.001Z,98304.75
2022-11-24T00:34:15.040Z,98293.69
2022-11-24T00:36:42.057Z,98304.34
2022-11-24T00:39:12.140Z,98308.25
2022-11-24T00:41:39.433Z,98316.66
2022-11-24T00:44:06.047Z,98319.47
2022-11-24T00:46:33.236Z,98315.78
2022-11-24T00:49:02.540Z,98320.16
2022-11-24T00:51:30.338Z,98310.75
2022-11-24T00:53:58.570Z,98311.59
2022-11-24T00:56:26.510Z,98313.00
2022-11-24T00:58:53.696Z,98313.53
2022-11-24T01:01:23.520Z,98319.00
2022-11-24T01:03:50.884Z,98308.22
2022-11-24T01:06:20.787Z,98321.41
2022-11-24T01:08:48.410Z,98321.53
2022-11-24T01:11:18.019Z,98325.44
2022-11-24T01:13:47.018Z,98333.75
2022-11-24T01:16:20.524Z,98342.44
2022-11-24T01:18:47.877Z,98340.50
2022-11-24T01:21:15.714Z,98338.41
2022-11-24T01:23:42.572Z,98346.66
2022-11-24T01:26:12.459Z,98354.38
2022-11-24T01:28:44.815Z,98351.44
2022-11-24T01:31:14.318Z,98359.72
2022-11-24T01:33:40.967Z,98358.03
2022-11-24T01:36:07.629Z,98366.44
2022-11-24T01:38:34.357Z,98367.16
2022-11-24T01:41:10.036Z,98373.59
2022-11-24T01:43:36.923Z,98380.44
2022-11-24T01:46:27.776Z,98373.28
2022-11-24T01:49:15.134Z,98375.81
2022-11-24T01:52:05.615Z,98373.16
2022-11-24T01:54:36.186Z,98379.31
2022-11-24T01:57:40.357Z,98379.47
2022-11-24T02:00:10.525Z,98385.94
2022-11-24T02:02:37.166Z,98381.88
2022-11-24T02:05:12.080Z,98386.78
2022-11-24T02:07:38.646Z,98382.84
2022-11-24T02:10:16.730Z,98388.72
2022-11-24T02:12:48.787Z,98385.38
2022-11-24T02:15:16.602Z,98385.06
2022-11-24T02:17:43.723Z,98392.97
2022-11-24T02:20:11.885Z,98391.28
2022-11-24T02:22:44.546Z,98395.03
2022-11-24T02:25:13.872Z,98391.81
2022-11-24T02:27:42.802Z,98384.09
2022-11-24T02:30:09.684Z,98396.03
2022-11-24T02:32:40.256Z,98392.38
2022-11-24T02:35:08.762Z,98398.69
2022-11-24T02:37:35.433Z,98405.69
2022-11-24T02:40:02.031Z,98405.56
2022-11-24T02:42:33.052Z,98401.63
2022-11-24T02:45:01.075Z,98393.88
2022-11-24T02:47:28.093Z,98406.25
2022-11-24T02:49:54.618Z,98411.16
2022-11-24T02:52:21.074Z,98413.09
2022-11-24T02:54:47.590Z,98412.28
2022-11-24T02:57:15.203Z,98419.03
2022-11-24T02:59:41.666Z,98404.13
2022-11-24T03:02:08.246Z,98400.38
2022-11-24T03:04:34.968Z,98398.25
2022-11-24T03:07:01.785Z,98401.34
2022-11-24T03:09:28.404Z,98407.78
2022-11-24T03:11:54.841Z,98416.50
2022-11-24T03:14:21.294Z,98422.53
2022-11-24T03:16:47.757Z,98424.91
2022-11-24T03:19:14.174Z,98418.16
2022-11-24T03:21:40.809Z,98421.97
2022-11-24T03:24:07.584Z,98401.06
2022-11-24T03:26:34.596Z,98403.84
2022-11-24T03:29:01.279Z,98404.31
2022-11-24T03:31:27.924Z,98416.50
2022-11-24T03:33:54.617Z,98419.16
2022-11-24T03:36:21.350Z,98421.41
2022-11-24T03:38:48.021Z,98415.38
2022-11-24T03:41:14.500Z,98411.72
2022-11-24T03:43:44.095Z,98418.59
2022-11-24T03:46:11.926Z,98417.47
2022-11-24T03:48:38.860Z,98421.28
2022-11-24T03:51:05.662Z,98427.72
2022-11-24T03:53:33.567Z,98428.28
2022-11-24T03:56:00.762Z,98431.63
2022-11-24T03:58:28.135Z,98431.22
2022-11-24T04:00:55.916Z,98439.50
2022-11-24T04:03:23.400Z,98437.28
2022-11-24T04:05:50.405Z,98439.78
2022-11-24T04:08:17.569Z,98431.94
2022-11-24T04:10:44.025Z,98445.09
2022-11-24T04:13:13.625Z,98445.94
2022-11-24T04:15:41.065Z,98444.84
2022-11-24T04:18:09.648Z,98441.31
2022-11-24T04:20:37.125Z,98446.78
2022-11-24T04:23:03.677Z,98454.97
2022-11-24T04:25:30.397Z,98442.59
2022-11-24T04:27:57.315Z,98447.66
2022-11-24T04:30:25.966Z,98455.78
2022-11-24T04:32:53.042Z,98456.91
2022-11-24T04:35:20.133Z,98454.66
2022-11-24T04:37:47.478Z,98456.34
2022-11-24T04:40:14.594Z,98459.72
2022-11-24T04:42:41.298Z,98459.44
2022-11-24T04:45:08.151Z,98454.22
2022-11-24T04:47:34.777Z,98459.44
2022-11-24T04:50:01.160Z,98468.84
2022-11-24T04:52:45.993Z,98462.81
2022-11-24T04:55:12.852Z,98459.59
2022-11-24T04:57:55.761Z,98464.63
2022-11-24T05:00:22.260Z,98463.22
2022-11-24T05:02:51.814Z,98467.44
2022-11-24T05:05:18.398Z,98468.97
2022-11-24T05:07:44.951Z,98473.19
2022-11-24T05:10:30.011Z,98475.88
2022-11-24T05:12:59.489Z,98489.03
2022-11-24T05:15:26.480Z,98485.00
2022-11-24T05:17:53.467Z,98490.03
2022-11-24T05:20:19.973Z,98492.81
2022-11-24T05:22:46.511Z,98486.66
2022-11-24T05:25:14.198Z,98498.44
2022-11-24T05:27:40.924Z,98495.09
2022-11-24T05:30:08.068Z,98500.84
2022-11-24T05:32:34.992Z,98498.44
2022-11-24T05:35:04.414Z,98496.06
2022-11-24T05:37:31.272Z,98500.66
2022-11-24T05:39:57.768Z,98504.75
2022-11-24T05:42:47.313Z,98501.53
2022-11-24T05:45:20.707Z,98504.03
2022-11-24T05:47:48.528Z,98508.41
2022-11-24T05:50:16.923Z,98511.06
2022-11-24T05:52:43.406Z,98514.84
2022-11-24T05:55:10.791Z,98516.09
2022-11-24T05:57:37.290Z,98514.69
2022-11-24T06:00:05.622Z,98513.59
2022-11-24T06:02:32.676Z,98516.41
2022-11-24T06:04:59.213Z,98521.28
2022-11-24T06:07:25.690Z,98514.28
2022-11-24T06:09:52.370Z,98517.78
2022-11-24T06:12:18.915Z,98527.50
2022-11-24T06:14:45.470Z,98528.03
2022-11-24T06:17:12.447Z,98524.25
2022-11-24T06:19:42.015Z,98535.50
2022-11-24T06:22:09.009Z,98545.44
2022-11-24T06:24:35.704Z,98549.53
2022-11-24T06:27:02.553Z,98554.31
2022-11-24T06:29:28.995Z,98564.00
2022-11-24T06:31:55.725Z,98557.13
2022-11-24T06:34:22.257Z,98560.75
2022-11-24T06:36:48.829Z,98559.19
2022-11-24T06:39:15.366Z,98570.88
2022-11-24T06:41:41.915Z,98573.56
2022-11-24T06:44:08.406Z,98580.84
2022-11-24T06:46:34.982Z,98582.13
2022-11-24T06:49:02.291Z,98588.56
2022-11-24T06:51:28.943Z,98599.09
2022-11-24T06:53:55.498Z,98594.50
2022-11-24T06:56:22.683Z,98598.41
2022-11-24T06:58:51.640Z,98596.31
2022-11-24T07:01:25.697Z,98606.00
2022-11-24T07:03:53.363Z,98613.88
2022-11-24T07:06:21.434Z,98618.91
2022-11-24T07:08:48.503Z,98622.16
2022-11-24T07:11:18.605Z,98621.59
2022-11-24T07:13:45.950Z,98630.72
2022-11-24T07:16:22.632Z,98632.41
2022-11-24T07:18:51.218Z,98640.41
2022-11-24T07:21:19.647Z,98642.34
2022-11-24T07:23:53.930Z,98643.66
2022-11-24T07:26:21.461Z,98654.59
2022-11-24T07:28:47.899Z,98650.78
2022-11-24T07:31:24.880Z,98665.69
2022-11-24T07:33:53.130Z,98665.53
2022-11-24T07:36:21.229Z,98671.44
2022-11-24T07:38:47.926Z,98675.09
2022-11-24T07:41:16.381Z,98684.22
2022-11-24T07:43:42.893Z,98685.50
2022-11-24T07:46:12.513Z,98686.31
2022-11-24T07:48:39.465Z,98686.91
2022-11-24T07:51:06.888Z,98684.38
2022-11-24T07:53:36.947Z,98691.44
2022-11-24T07:56:05.431Z,98692.25
2022-11-24T07:58:34.851Z,98706.59
2022-11-24T08:01:16.637Z,98711.38
2022-11-24T08:03:43.492Z,98704.91
2022-11-24T08:06:31.728Z,98717.56
2022-11-24T08:08:57.326Z,98710.53
2022-11-24T08:11:25.507Z,98712.50
2022-11-24T08:13:51.900Z,98720.22
2022-11-24T08:16:19.750Z,98727.13
2022-11-24T08:18:51.279Z,98738.78
2022-11-24T08:21:17.875Z,98737.81
2022-11-24T08:23:44.310Z,98736.53
2022-11-24T08:26:17.867Z,98732.44
2022-11-24T08:28:45.481Z,98731.47
2022-11-24T08:31:18.572Z,98736.53
2022-11-24T08:33:48.401Z,98740.19
2022-11-24T08:36:17.556Z,98744.00
2022-11-24T08:38:48.930Z,98748.47
2022-11-24T08:41:17.239Z,98748.91
2022-11-24T08:43:44.145Z,98748.91
2022-11-24T08:46:13.190Z,98751.44
2022-11-24T08:48:40.086Z,98751.28
2022-11-24T08:51:12.682Z,98756.91
2022-11-24T08:53:39.963Z,98756.63
2022-11-24T08:56:07.766Z,98758.44
2022-11-24T08:58:36.316Z,98755.75
2022-11-24T09:01:14.077Z,98759.41
2022-11-24T09:03:48.534Z,98759.41
2022-11-24T09:06:18.464Z,98767.84
2022-11-24T09:08:45.035Z,98771.66
2022-11-24T09:11:13.659Z,98776.56
2022-11-24T09:13:40.467Z,98773.78
2022-11-24T09:16:10.129Z,98779.41
2022-11-24T09:18:37.102Z,98776.56
2022-11-24T09:21:22.323Z,98779.22
2022-11-24T09:23:50.726Z,98786.56
2022-11-24T09:26:23.974Z,98788.06
2022-11-24T09:28:54.345Z,98793.59
2022-11-24T09:31:22.753Z,98789.50
2022-11-24T09:33:49.342Z,98796.66
2022-11-24T09:36:15.688Z,98800.75
2022-11-24T09:38:43.386Z,98795.09
2022-11-24T09:41:22.155Z,98803.44
2022-11-24T09:44:20.099Z,98803.44
2022-11-24T09:47:00.956Z,98808.34
2022-11-24T09:49:53.216Z,98817.94
2022-11-24T09:52:32.560Z,98822.72
2022-11-24T09:55:03.019Z,98823.81
2022-11-24T09:57:37.434Z,98821.56
2022-11-24T10:00:14.255Z,98827.34
2022-11-24T10:02:40.668Z,98833.69
2022-11-24T10:05:07.834Z,98831.03
2022-11-24T10:07:42.841Z,98832.84
2022-11-24T10:10:24.178Z,98834.53
2022-11-24T10:13:13.127Z,98842.00
2022-11-24T10:15:53.375Z,98846.78
2022-11-24T10:18:38.356Z,98844.38
2022-11-24T10:21:24.865Z,98835.34
2022-11-24T10:24:16.583Z,98840.41
2022-11-24T10:26:54.737Z,98846.31
2022-11-24T10:29:28.661Z,98850.50
2022-11-24T10:31:56.687Z,98850.91
2022-11-24T10:34:49.862Z,98853.03
2022-11-24T10:37:42.224Z,98848.75
2022-11-24T10:40:40.560Z,98853.28
2022-11-24T10:43:00.771Z,98853.78
2022-11-24T10:45:28.548Z,98852.94
2022-11-24T10:47:55.076Z,98854.03
2022-11-24T10:50:24.721Z,98846.50
2022-11-24T10:53:19.138Z,98845.78
2022-11-24T10:55:55.106Z,98856.78
2022-11-24T10:58:37.268Z,98854.13
2022-11-24T11:01:13.860Z,98857.47
2022-11-24T11:03:58.298Z,98864.41
2022-11-24T11:06:30.114Z,98865.53
2022-11-24T11:09:09.192Z,98866.25
2022-11-24T11:11:38.690Z,98866.94
2022-11-24T11:14:07.128Z,98872.31
2022-11-24T11:16:37.364Z,98880.06
2022-11-24T11:19:33.026Z,98869.00
2022-11-24T11:22:11.444Z,98871.66
2022-11-24T11:24:40.071Z,98868.88
2022-11-24T11:27:15.546Z,98864.69
2022-11-24T11:35:15.023Z,98854.34
2022-11-24T11:37:42.038Z,98860.84
2022-11-24T11:40:16.099Z,98860.78
2022-11-24T11:43:02.307Z,98856.00
2022-11-24T11:45:37.700Z,98862.94
2022-11-24T11:48:04.222Z,98860.94
2022-11-24T11:54:16.473Z,98855.97
2022-11-24T11:56:49.528Z,98863.63
2022-11-24T11:59:55.014Z,98863.81
2022-11-24T12:02:33.450Z,98870.09
2022-11-24T12:05:05.171Z,98882.19
2022-11-24T12:07:49.635Z,98880.75
2022-11-24T12:10:40.919Z,98877.13
2022-11-24T12:13:33.310Z,98880.25
2022-11-24T12:16:13.439Z,98891.94
2022-11-24T12:18:58.807Z,98886.97
2022-11-24T12:21:34.331Z,98883.50
2022-11-24T12:24:05.002Z,98886.22
2022-11-24T12:26:56.651Z,98873.06
2022-11-24T12:29:57.366Z,98867.91
2022-11-24T12:32:48.876Z,98857.72
2022-11-24T12:35:20.553Z,98863.31
2022-11-24T12:38:12.893Z,98872.66
2022-11-24T12:44:21.977Z,98873.94
2022-11-24T12:47:04.016Z,98868.97
2022-11-24T12:49:33.829Z,98875.72
2022-11-24T12:52:16.641Z,98885.75
2022-11-24T12:54:43.009Z,98885.38
2022-11-24T12:57:12.489Z,98889.03
2022-11-24T13:00:03.732Z,98879.84
2022-11-24T13:02:49.145Z,98878.69
2022-11-24T13:05:48.836Z,98878.88
2022-11-24T13:08:16.024Z,98868.13
2022-11-24T13:10:58.407Z,98869.13
2022-11-24T13:13:50.143Z,98857.06
2022-11-24T13:16:59.091Z,98865.69
2022-11-24T13:19:17.443Z,98865.84
2022-11-24T13:21:45.371Z,98856.53
2022-11-24T13:24:18.929Z,98858.69
2022-11-24T13:26:50.569Z,98858.69
2022-11-24T13:29:34.051Z,98860.84
2022-11-24T13:32:03.132Z,98868.13
2022-11-24T13:34:39.002Z,98878.78
2022-11-24T13:37:34.449Z,98888.59
2022-11-24T13:40:22.460Z,98888.63
2022-11-24T13:42:58.668Z,98887.75
2022-11-24T13:45:41.452Z,98883.22
2022-11-24T13:48:28.201Z,98885.75
2022-11-24T13:50:54.695Z,98883.69
2022-11-24T13:53:39.866Z,98871.50
2022-11-24T13:56:12.579Z,98875.78
2022-11-24T13:58:47.728Z,98874.88
2022-11-24T14:01:22.428Z,98875.84
2022-11-24T14:04:28.584Z,98875.50
2022-11-24T14:06:48.461Z,98877.06
2022-11-24T14:09:23.814Z,98888.13
2022-11-24T14:12:03.623Z,98881.28
2022-11-24T14:14:30.135Z,98887.13
2022-11-24T14:17:28.060Z,98898.47
2022-11-24T14:19:57.194Z,98905.31
2022-11-24T14:22:43.334Z,98900.72
2022-11-24T14:25:30.119Z,98902.09
2022-11-24T14:27:57.166Z,98905.69
2022-11-24T14:30:25.232Z,98905.00
2022-11-24T14:32:56.822Z,98910.59
2022-11-24T14:35:27.991Z,98903.66
2022-11-24T14:37:54.571Z,98909.59
2022-11-24T14:40:48.839Z,98911.19
2022-11-24T14:43:27.665Z,98909.25
2022-11-24T14:45:55.886Z,98919.09
2022-11-24T14:48:28.257Z,98928.72
2022-11-24T14:51:06.260Z,98925.91
2022-11-24T14:53:34.361Z,98923.66
2022-11-24T14:56:21.682Z,98913.34
2022-11-24T14:58:48.495Z,98925.91
2022-11-24T15:01:34.845Z,98931.28
2022-11-24T15:07:23.928Z,98927.56
2022-11-24T15:10:00.045Z,98925.47
2022-11-24T15:12:41.913Z,98932.06
2022-11-24T15:15:14.347Z,98933.03
2022-11-24T15:17:56.698Z,98930.22
2022-11-24T15:20:32.711Z,98936.53
2022-11-24T15:23:21.527Z,98946.50
2022-11-24T15:25:48.431Z,98947.31
2022-11-24T15:28:14.907Z,98944.31
2022-11-24T15:30:41.699Z,98951.75
2022-11-24T15:33:16.766Z,98945.50
2022-11-24T15:35:44.153Z,98948.00
2022-11-24T15:38:10.850Z,98953.28
2022-11-24T15:40:38.767Z,98958.69
2022-11-24T15:43:31.301Z,98962.41
2022-11-24T15:45:58.808Z,98964.16
2022-11-24T15:48:25.490Z,98967.38
2022-11-24T15:50:52.851Z,98974.66
2022-11-24T15:53:32.747Z,98982.84
2022-11-24T15:56:01.280Z,98985.84
2022-11-24T15:58:27.893Z,98976.59
2022-11-24T16:00:54.387Z,98976.25
2022-11-24T16:06:19.102Z,98977.81
2022-11-24T16:08:50.531Z,98982.16
2022-11-24T16:11:23.263Z,98986.78
2022-11-24T16:13:53.425Z,98990.44
2022-11-24T16:16:21.461Z,98993.47
2022-11-24T16:18:48.139Z,98994.84
2022-11-24T16:21:14.719Z,98996.03
2022-11-24T16:23:41.155Z,98996.16
2022-11-24T16:26:07.758Z,99005.53
2022-11-24T16:28:34.668Z,99001.44
2022-11-24T16:31:01.383Z,99001.91
2022-11-24T16:33:31.043Z,99006.88
2022-11-24T16:35:57.490Z,99004.16
2022-11-24T16:38:24.223Z,99001.28
2022-11-24T16:40:56.095Z,99008.06
2022-11-24T16:43:22.982Z,99018.00
2022-11-24T16:46:24.864Z,99006.13
2022-11-24T16:48:55.040Z,98998.78
2022-11-24T16:51:23.370Z,99010.50
2022-11-24T16:53:58.399Z,99007.72
2022-11-24T16:56:25.156Z,99009.69
2022-11-24T16:58:51.979Z,99015.97
2022-11-24T17:01:18.489Z,99021.53
2022-11-24T17:03:45.000Z,99023.47
2022-11-24T17:06:15.663Z,99017.91
2022-11-24T17:08:43.298Z,99020.81
2022-11-24T17:11:15.155Z,99018.91
2022-11-24T17:13:42.644Z,99023.50
2022-11-24T17:16:12.123Z,99017.81
2022-11-24T17:18:39.807Z,99013.59
2022-11-24T17:21:09.978Z,99025.06
2022-11-24T17:23:37.319Z,99025.44
2022-11-24T17:26:06.902Z,99033.78
2022-11-24T17:28:34.650Z,99030.28
2022-11-24T17:31:08.886Z,99031.47
2022-11-24T17:33:35.950Z,99024.97
2022-11-24T17:36:04.792Z,99029.56
2022-11-24T17:38:31.165Z,99025.44
2022-11-24T17:40:58.164Z,99029.78
2022-11-24T17:43:24.712Z,99026.53
2022-11-24T17:46:00.990Z,99034.75
2022-11-24T17:48:28.335Z,99033.91
2022-11-24T17:51:03.228Z,99032.81
2022-11-24T17:53:30.139Z,99038.13
2022-11-24T17:56:00.780Z,99037.78
2022-11-24T17:58:28.673Z,99040.34
2022-11-24T18:00:55.567Z,99042.13
2022-11-24T18:03:22.611Z,99042.75
2022-11-24T18:05:50.098Z,99050.09
2022-11-24T18:08:16.946Z,99046.84
2022-11-24T18:10:43.484Z,99049.38
2022-11-24T18:13:22.179Z,99050.97
2022-11-24T18:16:00.289Z,99050.25
2022-11-24T18:18:26.917Z,99055.31
2022-11-24T18:21:01.259Z,99055.69
2022-11-24T18:23:28.496Z,99058.34
2022-11-24T18:26:00.061Z,99061.72
2022-11-24T18:28:27.495Z,99048.56
2022-11-24T18:31:00.809Z,99038.75
2022-11-24T18:33:27.301Z,99045.28
2022-11-24T18:36:01.417Z,99043.00
2022-11-24T18:38:28.196Z,99046.38
2022-11-24T18:40:59.260Z,99050.84
2022-11-24T18:43:27.653Z,99040.41
2022-11-24T18:45:54.398Z,99048.69
2022-11-24T18:48:22.643Z,99044.19
2022-11-24T18:50:53.603Z,99045.66
2022-11-24T18:53:21.296Z,99046.00
2022-11-24T18:56:05.011Z,99052.91
2022-11-24T18:58:33.090Z,99046.97
2022-11-24T19:01:08.270Z,99041.41
2022-11-24T19:03:48.326Z,99038.16
2022-11-24T19:06:21.386Z,99037.78
2022-11-24T19:08:48.740Z,99039.00
2022-11-24T19:11:33.865Z,99039.47
2022-11-24T19:14:01.837Z,99031.47
2022-11-24T19:16:28.972Z,99034.25
2022-11-24T19:18:59.824Z,99026.25
2022-11-24T19:21:27.385Z,99031.75
2022-11-24T19:23:53.876Z,99026.25
2022-11-24T19:26:20.356Z,99031.25
2022-11-24T19:28:47.109Z,99032.34
2022-11-24T19:31:15.236Z,99031.25
2022-11-24T19:33:42.087Z,99036.94
2022-11-24T19:36:17.527Z,99035.38
2022-11-24T19:38:52.125Z,99038.03
2022-11-24T19:41:19.605Z,99039.94
2022-11-24T19:43:47.093Z,99034.88
2022-11-24T19:46:16.132Z,99034.38
2022-11-24T19:48:49.941Z,99036.69
2022-11-24T19:51:18.793Z,99043.84
2022-11-24T19:53:46.139Z,99032.72
2022-11-24T19:56:14.736Z,99037.78
2022-11-24T19:58:41.769Z,99035.09
2022-11-24T20:01:40.375Z,99030.88
2022-11-24T20:04:09.432Z,99030.63
2022-11-24T20:06:44.442Z,99037.28
2022-11-24T20:09:12.516Z,99026.88
2022-11-24T20:11:39.715Z,99038.25
2022-11-24T20:14:07.485Z,99023.59
2022-11-24T20:16:34.691Z,99036.56
2022-11-24T20:19:07.380Z,99039.34
2022-11-24T20:21:35.419Z,99039.22
2022-11-24T20:24:05.098Z,99041.75
2022-11-24T20:26:34.602Z,99041.63
2022-11-24T20:29:01.933Z,99042.13
2022-11-24T20:31:34.250Z,99043.72
2022-11-24T20:34:01.872Z,99029.66
2022-11-24T20:36:30.012Z,99034.63
2022-11-24T20:38:59.276Z,99039.94
2022-11-24T20:41:29.026Z,99040.31
2022-11-24T20:43:58.016Z,99041.41
2022-11-24T20:46:26.379Z,99041.91
2022-11-24T20:48:54.817Z,99050.38
2022-11-24T20:51:24.642Z,99038.88
2022-11-24T20:53:53.539Z,99047.34
2022-11-24T20:56:23.214Z,99046.25
2022-11-24T20:58:50.553Z,99054.47
2022-11-24T21:01:22.905Z,99043.81
2022-11-24T21:03:58.378Z,99037.53
2022-11-24T21:06:31.460Z,99047.22
2022-11-24T21:09:03.499Z,99040.34
2022-11-24T21:11:31.643Z,99034.88
2022-11-24T21:13:58.410Z,99033.28
2022-11-24T21:16:36.540Z,99038.97
2022-11-24T21:19:06.056Z,99030.63
2022-11-24T21:21:35.193Z,99034.75
2022-11-24T21:24:03.164Z,99033.19
2022-11-24T21:26:29.807Z,99029.78
2022-11-24T21:28:57.251Z,99031.75
2022-11-24T21:31:23.896Z,99041.63
2022-11-24T21:33:52.745Z,99037.75
2022-11-24T21:36:22.346Z,99036.19
2022-11-24T21:38:54.482Z,99040.16
2022-11-24T21:41:22.407Z,99037.16
2022-11-24T21:43:49.907Z,99044.88
2022-11-24T21:46:16.807Z,99040.41
2022-11-24T21:48:43.617Z,99040.50
2022-11-24T21:51:18.102Z,99041.84
2022-11-24T21:53:45.742Z,99035.53
2022-11-24T21:56:17.697Z,99042.34
2022-11-24T21:58:48.185Z,99040.41
2022-11-24T22:01:16.143Z,99037.19
2022-11-24T22:03:43.337Z,99036.25
2022-11-24T22:06:10.170Z,99026.44
2022-11-24T22:08:36.714Z,99032.97
2022-11-24T22:11:05.560Z,99035.53
2022-11-24T22:13:32.434Z,99046.78
2022-11-24T22:16:00.963Z,99038.19
2022-11-24T22:18:31.203Z,99038.63
2022-11-24T22:20:57.555Z,99041.34
2022-11-24T22:23:25.198Z,99046.16
2022-11-24T22:25:51.709Z,99040.00
2022-11-24T22:28:18.257Z,99040.00
2022-11-24T22:30:44.882Z,99038.63
2022-11-24T22:33:11.217Z,99029.78
2022-11-24T22:35:37.773Z,99029.22
2022-11-24T22:38:04.302Z,99034.59
2022-11-24T22:40:30.830Z,99035.22
2022-11-24T22:42:58.149Z,99032.19
2022-11-24T22:45:24.669Z,99044.63
2022-11-24T22:47:54.944Z,99044.88
2022-11-24T22:50:21.535Z,99040.06
2022-11-24T22:52:49.843Z,99045.22
2022-11-24T22:55:16.418Z,99036.41
2022-11-24T22:57:47.407Z,99032.44
2022-11-24T23:00:16.232Z,99037.34
2022-11-24T23:02:42.772Z,99035.53
2022-11-24T23:05:09.671Z,99033.81
2022-11-24T23:07:36.231Z,99024.66
2022-11-24T23:10:03.054Z,99029.75
2022-11-24T23:12:29.484Z,99021.28
2022-11-24T23:14:55.856Z,99016.72
2022-11-24T23:17:22.412Z,99017.78
2022-11-24T23:19:48.850Z,99021.31
2022-11-24T23:22:15.282Z,99015.13
2022-11-24T23:24:41.807Z,99022.25
2022-11-24T23:27:08.235Z,99018.16
2022-11-24T23:29:34.869Z,99023.09
2022-11-24T23:32:01.234Z,99022.03
2022-11-24T23:34:27.833Z,99018.38
2022-11-24T23:36:54.238Z,99019.94
2022-11-24T23:39:20.773Z,99002.53
2022-11-24T23:41:47.118Z,99015.00
2022-11-24T23:44:13.603Z,99017.78
2022-11-24T23:46:40.121Z,99010.50
2022-11-24T23:49:06.570Z,99000.22
2022-11-24T23:51:33.928Z,98987.41
2022-11-24T23:54:01.017Z,98985.97
2022-11-24T23:56:32.282Z,98988.88
2022-11-24T23:59:01.241Z,98992.00
